ADDS METAR Data INFO
IDs: Format: Raw Decoded Include TAF

Data at: 0249 UTC 17 Jan 2018

KBWP 170235Z AUTO 18007KT 10SM CLR M16/M20 A3047 RMK AO1
KBWP 170215Z AUTO 16007KT 10SM CLR M16/M20 A3048 RMK AO1
KBWP 170155Z AUTO 14007KT 10SM CLR M16/M20 A3050 RMK AO1
KBWP 170135Z AUTO 15005KT 10SM CLR M16/M20 A3051 RMK AO1
KBWP 170115Z AUTO 15005KT 10SM CLR M15/M19 A3052 RMK AO1
KBWP 170055Z AUTO 15006KT 10SM CLR M14/M18 A3053 RMK AO1
KBWP 170035Z AUTO 17006KT 10SM CLR M14/M18 A3053 RMK AO1
KBWP 170015Z AUTO 16005KT 10SM CLR M14/M18 A3054 RMK AO1
KBWP 162355Z AUTO 18007KT 10SM CLR M14/M18 A3054 RMK AO1
KBWP 162335Z AUTO 18007KT 10SM CLR M14/M18 A3056 RMK AO1
KBWP 162315Z AUTO 17008KT 10SM CLR M14/M19 A3057 RMK AO1
KBWP 162255Z AUTO 18006KT 10SM CLR M13/M20 A3059 RMK AO1
KBWP 162235Z AUTO 18006KT 10SM CLR M14/M20 A3059 RMK AO1
KBWP 162215Z AUTO 19005KT 10SM SCT120 M14/M21 A3060 RMK AO1
KBWP 162155Z AUTO 19006KT 10SM BKN120 M14/M21 A3060 RMK AO1
KBWP 162135Z AUTO 19007KT 10SM BKN120 M15/M21 A3062 RMK AO1
KBWP 162115Z AUTO 22004KT 10SM SCT120 M15/M22 A3064 RMK AO1
KBWP 162055Z AUTO 19004KT 10SM CLR M15/M22 A3063 RMK AO1
KBWP 162035Z AUTO 22005KT 10SM CLR M16/M22 A3065 RMK AO1
KBWP 162015Z AUTO 22004KT 10SM CLR M16/M22 A3066 RMK AO1
KBWP 161955Z AUTO 24004KT 10SM CLR M17/M23 A3066 RMK AO1
KBWP 161935Z AUTO 23004KT 10SM CLR M17/M23 A3067 RMK AO1
KBWP 161915Z AUTO 26005KT 10SM CLR M17/M23 A3068 RMK AO1
KBWP 161855Z AUTO 26004KT 10SM CLR M18/M23 A3069 RMK AO1
KBWP 161835Z AUTO 25005KT 10SM CLR M18/M24 A3070 RMK AO1
KBWP 161815Z AUTO 25006KT 10SM CLR M19/M25 A3071 RMK AO1
KBWP 161755Z AUTO 25006KT 10SM CLR M20/M25 A3072 RMK AO1
KBWP 161735Z AUTO 27005KT 10SM CLR M21/M26 A3073 RMK AO1
KBWP 161715Z AUTO 27004KT 10SM CLR M21/M26 A3075 RMK AO1
KBWP 161655Z AUTO 27004KT 10SM CLR M21/M27 A3075 RMK AO1
KBWP 161635Z AUTO 30004KT 10SM CLR M22/M27 A3076 RMK AO1
KBWP 161615Z AUTO 30004KT 10SM CLR M22/M27 A3076 RMK AO1
KBWP 161555Z AUTO 31003KT 10SM CLR M23/M27 A3076 RMK AO1
KBWP 161535Z AUTO 31006KT 10SM CLR M23/M28 A3076 RMK AO1
KBWP 161515Z AUTO 30008KT 10SM CLR M24/M28 A3076 RMK AO1
KBWP 161455Z AUTO 28006KT 10SM CLR M25/M28 A3077 RMK AO1
KBWP 161435Z AUTO 28006KT 10SM CLR M25/M29 A3077 RMK AO1
KBWP 161415Z AUTO 30005KT 10SM CLR M26/M29 A3077 RMK AO1
KBWP 161355Z AUTO 29004KT 10SM CLR M26/M29 A3078 RMK AO1
KBWP 161335Z AUTO 30004KT 10SM CLR M25/M29 A3078 RMK AO1
KBWP 161315Z AUTO 30005KT 10SM CLR M25/M29 A3079 RMK AO1
KBWP 161255Z AUTO 30004KT 10SM CLR M25/M28 A3078 RMK AO1
KBWP 161235Z AUTO 32006KT 10SM CLR M25/M28 A3079 RMK AO1
KBWP 161215Z AUTO 33006KT SCT003 BKN008 M24/M28 A3079 RMK AO1
KBWP 161155Z AUTO 33006KT OVC008 M23/M27 A3079 RMK AO1
KBWP 161135Z AUTO 34009KT OVC010 M23/M27 A3080 RMK AO1
KBWP 161115Z AUTO 33007KT 3SM OVC010 M23/M27 A3080 RMK AO1
KBWP 161055Z AUTO 33009KT 3SM SCT004 OVC010 M23/M27 A3080 RMK AO1
KBWP 161035Z AUTO 33008KT 4SM OVC008 M23/M27 A3079 RMK AO1
KBWP 161015Z AUTO 33008KT 7SM OVC008 M23/M27 A3080 RMK AO1
KBWP 160955Z AUTO 33009KT 10SM OVC008 M23/M27 A3080 RMK AO1
KBWP 160935Z AUTO 33010KT OVC010 M23/M27 A3080 RMK AO1
KBWP 160915Z AUTO 33009G14KT BKN010 OVC014 M23/M27 A3080 RMK AO1
KBWP 160855Z AUTO 33011G16KT OVC010 M23/M27 A3080 RMK AO1
KBWP 160835Z AUTO 34015KT OVC012 M23/M27 A3081 RMK AO1
KBWP 160815Z AUTO 33016G20KT OVC012 M23/M26 A3081 RMK AO1
KBWP 160755Z AUTO 33016KT OVC012 M23/M26 A3080 RMK AO1
KBWP 160735Z AUTO 32013KT OVC014 M22/M26 A3079 RMK AO1
KBWP 160715Z AUTO 32012KT OVC014 M22/M26 A3079 RMK AO1
KBWP 160655Z AUTO 33012G17KT OVC014 M23/M26 A3079 RMK AO1
KBWP 160635Z AUTO 33011KT OVC012 M23/M26 A3079 RMK AO1
KBWP 160615Z AUTO 33008KT OVC012 M23/M26 A3079 RMK AO1
KBWP 160555Z AUTO 33012KT OVC012 M23/M26 A3079 RMK AO1
KBWP 160535Z AUTO 33011G14KT OVC014 M23/M26 A3079 RMK AO1
KBWP 160515Z AUTO 33011G14KT OVC014 M23/M26 A3079 RMK AO1
KBWP 160455Z AUTO 33009G17KT SCT009 OVC014 M23/M27 A3080 RMK AO1
KBWP 160435Z AUTO 34015G19KT BKN009 OVC014 M23/M27 A3079 RMK AO1
KBWP 160415Z AUTO 34012G16KT BKN009 OVC014 M23/M27 A3078 RMK AO1
KBWP 160355Z AUTO 35013G22KT OVC009 M23/M27 A3078 RMK AO1
KBWP 160335Z AUTO 34014KT BKN009 OVC014 M23/M27 A3077 RMK AO1
KBWP 160315Z AUTO 35017G22KT OVC012 M23/M27 A3077 RMK AO1
KBWP 160255Z AUTO 35021G24KT SCT008 OVC014 M23/M27 A3077 RMK AO1
KBWP 160235Z AUTO 35021G27KT OVC014 M23/M27 A3077 RMK AO1
KBWP 160215Z AUTO 34019G23KT SCT010 OVC014 M23/M27 A3076 RMK AO1
KBWP 160155Z AUTO 35016G25KT OVC014 M23/M27 A3077 RMK AO1
KBWP 160135Z AUTO 34015G22KT OVC012 M23/M27 A3077 RMK AO1
KBWP 160115Z AUTO 34018G24KT OVC014 M23/M27 A3076 RMK AO1
KBWP 160055Z AUTO 34015G22KT OVC016 M23/M27 A3076 RMK AO1
KBWP 160035Z AUTO 33014G19KT SCT011 OVC016 M23/M27 A3075 RMK AO1
KBWP 160015Z AUTO 34015G21KT 7SM OVC012 M23/M27 A3075 RMK AO1
KBWP 152355Z AUTO 34014KT 5SM OVC012 M23/M27 A3074 RMK AO1
KBWP 152335Z AUTO 34016G19KT 5SM OVC012 M23/M27 A3073 RMK AO1
KBWP 152315Z AUTO 34013G22KT 4SM OVC012 M23/M27 A3072 RMK AO1
KBWP 152255Z AUTO 34014G22KT 5SM OVC014 M23/M27 A3072 RMK AO1
KBWP 152235Z AUTO 34016G23KT 4SM OVC014 M23/M27 A3071 RMK AO1
KBWP 152215Z AUTO 34018G25KT OVC014 M23/M27 A3070 RMK AO1
KBWP 152155Z AUTO 35014G23KT OVC014 M23/M27 A3070 RMK AO1
KBWP 152135Z AUTO 34015G22KT OVC014 M23/M27 A3069 RMK AO1
KBWP 152115Z AUTO 34016G25KT OVC014 M23/M28 A3068 RMK AO1
KBWP 152055Z AUTO 34016G25KT OVC014 M23/M27 A3067 RMK AO1
KBWP 152035Z AUTO 34016G20KT SCT007 OVC014 M23/M27 A3066 RMK AO1
KBWP 152015Z AUTO 34017G21KT SCT007 OVC016 M23/M27 A3067 RMK AO1
KBWP 151955Z AUTO 34018G23KT SCT011 OVC016 M23/M27 A3067 RMK AO1
KBWP 151935Z AUTO 33018G24KT SCT008 OVC016 M23/M27 A3067 RMK AO1
KBWP 151915Z AUTO 34019G27KT SCT008 OVC016 M23/M27 A3066 RMK AO1
KBWP 151855Z AUTO 34016G24KT SCT006 OVC016 M23/M27 A3066 RMK AO1
KBWP 151835Z AUTO 34017G24KT SCT006 OVC016 M23/M27 A3067 RMK AO1
KBWP 151815Z AUTO 34021G29KT SCT008 OVC016 M23/M27 A3067 RMK AO1
KBWP 151755Z AUTO 34021G27KT SCT006 OVC016 M23/M27 A3067 RMK AO1
KBWP 151735Z AUTO 33020G27KT SCT006 OVC016 M23/M27 A3066 RMK AO1
KBWP 151715Z AUTO 35019G26KT SCT008 OVC016 M23/M27 A3066 RMK AO1
KBWP 151655Z AUTO 33019G23KT 3/4SM OVC006 M23/M26 A3066 RMK AO1
KBWP 151635Z AUTO 33019G24KT 3/4SM BKN006 OVC015 M22/M26 A3065 RMK AO1
KBWP 151615Z AUTO 33019G25KT 3/4SM BKN008 OVC016 M22/M26 A3064 RMK AO1
KBWP 151555Z AUTO 34021G24KT 1SM SCT008 OVC016 M22/M26 A3064 RMK AO1
KBWP 151535Z AUTO 33015G23KT 1 1/4SM SCT008 OVC016 M22/M26 A3064 RMK AO1
KBWP 151515Z AUTO 34014G21KT 1 1/4SM SCT008 BKN012 OVC018 M22/M26 A3063 RMK AO1
KBWP 151455Z AUTO 34018G25KT 1SM BKN012 OVC018 M22/M26 A3062 RMK AO1